createdAt,value
2022-08-22T00:00:18.552Z,18.36
2022-08-22T00:02:59.903Z,19.62
2022-08-22T00:03:30.880Z,18.32
2022-08-22T00:06:38.882Z,18.29
2022-08-22T00:09:52.799Z,18.25
2022-08-22T00:13:05.358Z,18.21
2022-08-22T00:16:13.896Z,18.23
2022-08-22T00:19:25.551Z,18.17
2022-08-22T00:22:40.149Z,18.14
2022-08-22T00:25:47.568Z,18.12
2022-08-22T00:29:00.925Z,18.15
2022-08-22T00:32:26.255Z,18.13
2022-08-22T00:35:44.995Z,18.19
2022-08-22T00:39:00.211Z,18.18
2022-08-22T00:42:02.477Z,18.15
2022-08-22T00:45:24.355Z,18.11
2022-08-22T00:48:48.716Z,18.12
2022-08-22T00:52:25.195Z,18.07
2022-08-22T00:56:13.089Z,18.05
2022-08-22T00:59:46.811Z,18.03
2022-08-22T01:03:37.684Z,18.06
2022-08-22T01:07:01.682Z,18.05
2022-08-22T01:10:14.631Z,18.01
2022-08-22T01:13:22.844Z,17.90
2022-08-22T01:16:31.186Z,17.94
2022-08-22T01:19:55.192Z,17.98
2022-08-22T01:23:18.972Z,18.01
2022-08-22T01:27:07.172Z,18.01
2022-08-22T01:30:28.383Z,18.03
2022-08-22T01:34:12.835Z,18.06
2022-08-22T01:37:43.914Z,18.07
2022-08-22T01:41:10.463Z,18.05
2022-08-22T01:44:59.630Z,17.94
2022-08-22T01:48:22.411Z,17.98
2022-08-22T01:51:40.284Z,18.00
2022-08-22T01:55:11.765Z,17.98
2022-08-22T01:58:26.823Z,17.95
2022-08-22T02:01:50.045Z,18.01
2022-08-22T02:05:02.622Z,18.03
2022-08-22T02:08:36.478Z,17.97
2022-08-22T02:11:48.120Z,17.97
2022-08-22T02:15:24.306Z,17.98
2022-08-22T02:18:46.021Z,17.97
2022-08-22T02:22:04.719Z,18.02
2022-08-22T02:26:03.439Z,17.99
2022-08-22T02:29:21.117Z,17.99
2022-08-22T02:32:41.839Z,17.99
2022-08-22T02:35:54.676Z,17.90
2022-08-22T02:39:16.953Z,17.95
2022-08-22T02:42:40.064Z,17.92
2022-08-22T02:46:05.590Z,17.95
2022-08-22T02:49:28.092Z,17.94
2022-08-22T02:52:44.637Z,17.95
2022-08-22T02:55:58.831Z,17.92
2022-08-22T02:59:16.598Z,17.92
2022-08-22T03:02:31.795Z,17.94
2022-08-22T03:05:36.857Z,17.93
2022-08-22T03:08:47.480Z,17.92
2022-08-22T03:12:14.033Z,17.88
2022-08-22T03:15:27.461Z,17.89
2022-08-22T03:18:53.742Z,17.89
2022-08-22T03:22:02.673Z,17.91
2022-08-22T03:25:30.603Z,17.94
2022-08-22T03:28:59.985Z,17.94
2022-08-22T03:32:11.679Z,17.98
2022-08-22T03:35:30.530Z,17.98
2022-08-22T03:38:32.856Z,17.95
2022-08-22T03:41:44.269Z,17.97
2022-08-22T03:45:14.554Z,17.98
2022-08-22T03:48:29.061Z,17.98
2022-08-22T03:51:34.257Z,17.97
2022-08-22T03:55:00.689Z,17.98
2022-08-22T03:58:32.339Z,18.01
2022-08-22T04:01:55.854Z,18.00
2022-08-22T04:05:28.585Z,18.01
2022-08-22T04:08:36.822Z,18.09
2022-08-22T04:11:48.961Z,18.05
2022-08-22T04:15:33.514Z,18.05
2022-08-22T04:18:41.764Z,18.08
2022-08-22T04:22:21.278Z,17.98
2022-08-22T04:25:35.391Z,17.95
2022-08-22T04:28:43.177Z,18.00
2022-08-22T04:31:54.263Z,18.01
2022-08-22T04:35:28.688Z,18.05
2022-08-22T04:38:38.943Z,18.08
2022-08-22T04:42:06.974Z,18.13
2022-08-22T04:45:28.040Z,18.18
2022-08-22T04:48:37.621Z,18.21
2022-08-22T04:52:03.075Z,18.21
2022-08-22T04:55:27.350Z,18.26
2022-08-22T04:58:48.066Z,18.28
2022-08-22T05:01:55.613Z,18.34
2022-08-22T05:05:13.205Z,18.37
2022-08-22T05:08:25.080Z,18.41
2022-08-22T05:11:29.188Z,18.47
2022-08-22T05:14:50.074Z,18.47
2022-08-22T05:18:04.194Z,18.52
2022-08-22T05:21:09.150Z,18.58
2022-08-22T05:24:31.927Z,18.62
2022-08-22T05:27:39.130Z,18.64
2022-08-22T05:30:46.038Z,18.64
2022-08-22T05:33:52.974Z,18.70
2022-08-22T05:37:17.626Z,18.81
2022-08-22T05:40:24.630Z,18.84
2022-08-22T05:43:27.710Z,18.92
2022-08-22T05:46:35.750Z,18.87
2022-08-22T05:49:48.137Z,18.97
2022-08-22T05:53:08.358Z,19.03
2022-08-22T05:56:33.875Z,19.10
2022-08-22T05:59:40.862Z,19.24
2022-08-22T06:03:10.410Z,19.33
2022-08-22T06:06:18.360Z,19.45
2022-08-22T06:09:56.428Z,19.56
2022-08-22T06:13:24.512Z,19.67
2022-08-22T06:16:39.987Z,19.77
2022-08-22T06:19:53.392Z,19.83
2022-08-22T06:23:00.699Z,19.91
2022-08-22T06:26:05.503Z,19.94
2022-08-22T06:29:09.365Z,20.01
2022-08-22T06:32:52.876Z,20.08
2022-08-22T06:36:16.075Z,20.23
2022-08-22T06:39:30.145Z,20.31
2022-08-22T06:42:34.798Z,20.36
2022-08-22T06:45:39.094Z,20.37
2022-08-22T06:48:41.503Z,20.46
2022-08-22T06:51:46.277Z,20.51
2022-08-22T06:54:54.841Z,20.59
2022-08-22T06:58:30.926Z,20.65
2022-08-22T07:01:47.718Z,20.69
2022-08-22T07:04:51.474Z,20.73
2022-08-22T07:07:54.634Z,20.80
2022-08-22T07:11:03.272Z,20.80
2022-08-22T07:14:11.905Z,20.85
2022-08-22T07:17:27.600Z,20.87
2022-08-22T07:20:45.070Z,20.90
2022-08-22T07:23:48.186Z,20.87
2022-08-22T07:27:06.115Z,20.87
2022-08-22T07:30:27.250Z,20.95
2022-08-22T07:33:44.028Z,20.98
2022-08-22T07:36:53.671Z,21.01
2022-08-22T07:40:34.333Z,21.13
2022-08-22T07:43:54.997Z,21.24
2022-08-22T07:47:00.599Z,21.21
2022-08-22T07:50:07.418Z,21.37
2022-08-22T07:53:28.330Z,21.47
2022-08-22T07:56:35.837Z,21.52
2022-08-22T07:59:45.902Z,21.61
2022-08-22T08:02:58.885Z,21.56
2022-08-22T08:06:02.518Z,21.59
2022-08-22T08:09:06.657Z,21.68
2022-08-22T08:12:12.266Z,21.64
2022-08-22T08:15:23.354Z,21.59
2022-08-22T08:18:27.985Z,21.57
2022-08-22T08:21:36.079Z,21.54
2022-08-22T08:24:44.769Z,21.51
2022-08-22T08:28:10.007Z,21.49
2022-08-22T08:31:32.613Z,21.48
2022-08-22T08:34:38.217Z,21.50
2022-08-22T08:38:11.862Z,21.99
2022-08-22T08:41:25.758Z,23.47
2022-08-22T08:44:37.315Z,23.89
2022-08-22T08:47:56.070Z,23.67
2022-08-22T08:51:17.555Z,23.75
2022-08-22T08:54:29.402Z,23.43
2022-08-22T08:58:06.675Z,23.11
2022-08-22T09:05:16.220Z,22.96
2022-08-22T09:08:46.065Z,22.91
2022-08-22T09:11:57.934Z,22.82
2022-08-22T09:15:26.333Z,22.87
2022-08-22T09:18:59.294Z,22.95
2022-08-22T09:22:24.805Z,22.91
2022-08-22T09:25:38.682Z,22.85
2022-08-22T09:28:58.938Z,22.92
2022-08-22T09:32:13.071Z,22.99
2022-08-22T09:35:53.339Z,23.12
2022-08-22T09:38:58.392Z,23.14
2022-08-22T09:42:08.024Z,23.20
2022-08-22T09:45:39.857Z,23.22
2022-08-22T09:48:52.875Z,23.23
2022-08-22T09:52:34.224Z,23.29
2022-08-22T09:55:57.909Z,23.22
2022-08-22T09:59:06.809Z,23.21
2022-08-22T10:02:30.376Z,23.17
2022-08-22T10:05:45.427Z,23.00
2022-08-22T10:09:09.035Z,22.95
2022-08-22T10:12:19.536Z,23.03
2022-08-22T10:15:57.812Z,23.08
2022-08-22T10:19:16.960Z,23.12
2022-08-22T10:22:36.475Z,23.31
2022-08-22T10:25:48.103Z,23.44
2022-08-22T10:29:31.157Z,23.49
2022-08-22T10:32:43.540Z,23.45
2022-08-22T10:35:51.579Z,23.54
2022-08-22T10:38:58.014Z,23.71
2022-08-22T10:42:06.771Z,23.81
2022-08-22T10:45:42.200Z,23.96
2022-08-22T10:48:47.306Z,24.12
2022-08-22T10:51:58.304Z,24.41
2022-08-22T10:55:14.521Z,24.56
2022-08-22T10:58:26.183Z,24.63
2022-08-22T11:01:42.003Z,24.57
2022-08-22T11:05:03.086Z,24.67
2022-08-22T11:08:08.080Z,24.85
2022-08-22T11:12:09.116Z,24.91
2022-08-22T11:15:43.157Z,24.93
2022-08-22T11:19:02.112Z,24.83
2022-08-22T11:22:27.615Z,24.71
2022-08-22T11:25:52.519Z,24.56
2022-08-22T11:29:23.920Z,24.49
2022-08-22T11:32:38.862Z,24.38
2022-08-22T11:36:18.072Z,24.41
2022-08-22T11:40:05.494Z,24.62
2022-08-22T11:43:11.994Z,24.92
2022-08-22T11:46:35.353Z,25.11
2022-08-22T11:49:37.413Z,25.24
2022-08-22T11:52:56.685Z,25.32
2022-08-22T11:56:34.530Z,25.32
2022-08-22T11:59:43.484Z,25.42
2022-08-22T12:02:48.766Z,25.47
2022-08-22T12:06:07.659Z,25.38
2022-08-22T12:09:29.965Z,25.55
2022-08-22T12:12:42.210Z,25.65
2022-08-22T12:15:47.442Z,25.71
2022-08-22T12:19:15.370Z,25.80
2022-08-22T12:23:02.098Z,25.72
2022-08-22T12:26:26.860Z,25.71
2022-08-22T12:29:50.159Z,25.46
2022-08-22T12:33:23.469Z,25.35
2022-08-22T12:36:35.483Z,25.21
2022-08-22T12:40:09.698Z,24.98
2022-08-22T12:43:43.470Z,24.93
2022-08-22T12:47:09.200Z,24.94
2022-08-22T12:50:17.412Z,24.96
2022-08-22T12:53:28.005Z,24.92
2022-08-22T12:56:53.744Z,24.90
2022-08-22T13:00:06.687Z,24.97
2022-08-22T13:03:24.073Z,24.85
2022-08-22T13:06:42.138Z,24.53
2022-08-22T13:09:59.254Z,24.56
2022-08-22T13:13:05.376Z,24.48
2022-08-22T13:16:18.817Z,24.36
2022-08-22T13:19:28.553Z,24.29
2022-08-22T13:22:34.927Z,24.19
2022-08-22T13:25:59.987Z,24.19
2022-08-22T13:29:26.164Z,24.35
2022-08-22T13:32:38.985Z,24.24
2022-08-22T13:35:55.174Z,24.22
2022-08-22T13:39:10.116Z,24.29
2022-08-22T13:42:30.221Z,24.31
2022-08-22T13:45:36.843Z,24.36
2022-08-22T13:49:07.825Z,24.45
2022-08-22T13:52:29.376Z,24.32
2022-08-22T13:55:49.037Z,24.28
2022-08-22T13:58:57.184Z,24.21
2022-08-22T14:02:30.893Z,24.23
2022-08-22T14:05:42.935Z,24.11
2022-08-22T14:08:46.000Z,24.08
2022-08-22T14:11:59.987Z,24.03
2022-08-22T14:15:06.271Z,23.95
2022-08-22T14:18:15.543Z,23.88
2022-08-22T14:21:40.858Z,23.93
2022-08-22T14:24:58.469Z,23.80
2022-08-22T14:28:06.238Z,23.73
2022-08-22T14:31:14.253Z,23.75
2022-08-22T14:34:17.179Z,23.67
2022-08-22T14:37:33.831Z,23.67
2022-08-22T14:40:37.625Z,23.52
2022-08-22T14:43:51.423Z,23.57
2022-08-22T14:47:00.507Z,23.37
2022-08-22T14:50:11.234Z,23.31
2022-08-22T14:53:25.226Z,23.17
2022-08-22T14:56:29.907Z,22.97
2022-08-22T14:59:34.945Z,22.79
2022-08-22T15:02:38.046Z,22.84
2022-08-22T15:05:45.204Z,22.75
2022-08-22T15:08:50.723Z,22.75
2022-08-22T15:11:53.333Z,22.75
2022-08-22T15:15:06.969Z,22.71
2022-08-22T15:18:34.239Z,22.72
2022-08-22T15:21:37.195Z,22.62
2022-08-22T15:25:04.419Z,22.52
2022-08-22T15:28:26.594Z,22.50
2022-08-22T15:31:41.556Z,22.47
2022-08-22T15:34:52.298Z,22.61
2022-08-22T15:38:04.352Z,22.53
2022-08-22T15:41:22.565Z,22.48
2022-08-22T15:44:33.584Z,22.44
2022-08-22T15:47:40.170Z,22.38
2022-08-22T15:51:02.553Z,22.30
2022-08-22T15:54:16.148Z,22.32
2022-08-22T15:57:47.388Z,22.20
2022-08-22T16:01:20.558Z,22.13
2022-08-22T16:04:47.260Z,22.06
2022-08-22T16:08:02.695Z,21.99
2022-08-22T16:11:05.003Z,21.95
2022-08-22T16:14:45.202Z,21.81
2022-08-22T16:17:53.187Z,21.86
2022-08-22T16:20:56.062Z,21.87
2022-08-22T16:23:58.414Z,21.84
2022-08-22T16:27:18.868Z,21.84
2022-08-22T16:30:32.692Z,21.80
2022-08-22T16:33:39.056Z,21.81
2022-08-22T16:36:50.170Z,21.85
2022-08-22T16:39:58.474Z,21.80
2022-08-22T16:43:15.295Z,21.75
2022-08-22T16:46:33.321Z,21.76
2022-08-22T16:49:51.099Z,21.70
2022-08-22T16:53:01.071Z,21.62
2022-08-22T16:56:14.784Z,21.56
2022-08-22T16:59:26.052Z,21.57
2022-08-22T17:02:46.549Z,21.61
2022-08-22T17:06:23.108Z,21.65
2022-08-22T17:09:41.038Z,21.50
2022-08-22T17:13:01.971Z,21.44
2022-08-22T17:16:29.197Z,21.39
2022-08-22T17:19:46.422Z,21.40
2022-08-22T17:23:00.130Z,21.42
2022-08-22T17:26:09.862Z,21.27
2022-08-22T17:29:21.132Z,21.20
2022-08-22T17:32:41.858Z,21.21
2022-08-22T17:36:08.787Z,21.16
2022-08-22T17:39:42.530Z,21.12
2022-08-22T17:42:54.311Z,21.03
2022-08-22T17:46:27.687Z,21.09
2022-08-22T17:49:42.287Z,21.06
2022-08-22T17:53:36.833Z,21.03
2022-08-22T17:57:00.300Z,21.01
2022-08-22T18:00:27.532Z,20.98
2022-08-22T18:03:36.445Z,20.97
2022-08-22T18:06:48.098Z,20.87
2022-08-22T18:10:19.622Z,20.88
2022-08-22T18:13:42.116Z,20.79
2022-08-22T18:16:49.012Z,20.79
2022-08-22T18:20:00.186Z,20.81
2022-08-22T18:23:35.635Z,20.80
2022-08-22T18:26:42.496Z,20.81
2022-08-22T18:29:56.196Z,20.77
2022-08-22T18:33:05.954Z,20.76
2022-08-22T18:36:18.062Z,20.69
2022-08-22T18:39:25.509Z,20.70
2022-08-22T18:42:43.734Z,20.68
2022-08-22T18:45:45.770Z,20.64
2022-08-22T18:49:13.718Z,20.64
2022-08-22T18:52:15.016Z,20.60
2022-08-22T18:55:23.399Z,20.59
2022-08-22T18:58:34.614Z,20.52
2022-08-22T19:01:50.260Z,20.52
2022-08-22T19:05:26.242Z,20.51
2022-08-22T19:08:53.873Z,20.48
2022-08-22T19:12:37.765Z,20.48
2022-08-22T19:16:11.822Z,20.47
2022-08-22T19:19:57.876Z,20.42
2022-08-22T19:23:35.887Z,20.37
2022-08-22T19:26:51.257Z,20.37
2022-08-22T19:29:57.465Z,20.36
2022-08-22T19:33:09.577Z,20.38
2022-08-22T19:36:29.283Z,20.36
2022-08-22T19:39:40.511Z,20.32
2022-08-22T19:42:46.756Z,20.26
2022-08-22T19:45:49.093Z,20.14
2022-08-22T19:48:52.810Z,20.18
2022-08-22T19:52:13.292Z,20.26
2022-08-22T19:55:28.213Z,20.30
2022-08-22T19:58:46.290Z,20.27
2022-08-22T20:01:56.152Z,20.27
2022-08-22T20:05:21.363Z,20.27
2022-08-22T20:08:37.550Z,20.30
2022-08-22T20:12:15.268Z,20.22
2022-08-22T20:15:25.185Z,20.18
2022-08-22T20:19:07.111Z,20.16
2022-08-22T20:22:26.490Z,20.05
2022-08-22T20:25:42.730Z,20.09
2022-08-22T20:28:50.726Z,20.16
2022-08-22T20:31:58.498Z,20.18
2022-08-22T20:35:02.986Z,20.12
2022-08-22T20:38:08.783Z,20.10
2022-08-22T20:41:21.015Z,20.11
2022-08-22T20:44:37.670Z,20.13
2022-08-22T20:47:49.447Z,20.09
2022-08-22T20:50:52.094Z,20.08
2022-08-22T20:53:58.313Z,20.07
2022-08-22T20:57:10.380Z,20.08
2022-08-22T21:00:25.688Z,20.04
2022-08-22T21:03:37.542Z,20.03
2022-08-22T21:06:39.702Z,20.07
2022-08-22T21:10:00.747Z,20.05
2022-08-22T21:13:10.470Z,20.04
2022-08-22T21:16:21.975Z,19.99
2022-08-22T21:19:29.321Z,19.93
2022-08-22T21:22:32.897Z,19.90
2022-08-22T21:25:50.654Z,19.86
2022-08-22T21:29:04.429Z,19.87
2022-08-22T21:32:25.366Z,19.72
2022-08-22T21:35:32.648Z,19.70
2022-08-22T21:38:34.815Z,19.73
2022-08-22T21:41:43.742Z,19.76
2022-08-22T21:44:56.651Z,19.69
2022-08-22T21:47:59.761Z,19.72
2022-08-22T21:51:24.845Z,19.74
2022-08-22T21:54:31.214Z,19.74
2022-08-22T21:57:35.525Z,19.72
2022-08-22T22:00:57.457Z,19.65
2022-08-22T22:04:00.102Z,19.65
2022-08-22T22:07:02.220Z,19.65
2022-08-22T22:10:07.320Z,19.61
2022-08-22T22:13:09.886Z,19.61
2022-08-22T22:16:13.082Z,19.61
2022-08-22T22:19:15.299Z,19.58
2022-08-22T22:22:17.895Z,19.60
2022-08-22T22:25:40.102Z,19.58
2022-08-22T22:28:50.211Z,19.53
2022-08-22T22:31:52.443Z,19.56
2022-08-22T22:34:55.503Z,19.53
2022-08-22T22:37:57.999Z,19.54
2022-08-22T22:41:00.494Z,19.59
2022-08-22T22:44:03.469Z,19.55
2022-08-22T22:47:06.242Z,19.50
2022-08-22T22:50:08.960Z,19.38
2022-08-22T22:53:11.930Z,19.34
2022-08-22T22:56:23.134Z,19.29
2022-08-22T22:59:25.984Z,19.33
2022-08-22T23:02:28.102Z,19.31
2022-08-22T23:05:31.644Z,19.25
2022-08-22T23:08:33.758Z,19.28
2022-08-22T23:11:36.138Z,19.27
2022-08-22T23:14:38.231Z,19.24
2022-08-22T23:17:41.137Z,19.17
2022-08-22T23:20:43.234Z,19.22
2022-08-22T23:23:45.884Z,19.20
2022-08-22T23:26:48.178Z,19.20
2022-08-22T23:29:50.806Z,19.17
2022-08-22T23:32:53.433Z,19.17
2022-08-22T23:35:59.779Z,19.13
2022-08-22T23:39:05.290Z,19.17
2022-08-22T23:42:09.931Z,19.21
2022-08-22T23:45:12.046Z,19.23
2022-08-22T23:48:14.441Z,19.24
2022-08-22T23:51:23.040Z,19.20
2022-08-22T23:54:26.407Z,19.24
2022-08-22T23:57:29.388Z,19.27
